sensor_id;sensor_type;location;lat;lon;timestamp;pressure;altitude;pressure_sealevel;temperature;humidity
13456;BME280;6800;50.940;6.940;2023-04-15T00:00:39;99973.09;;;19.58;30.72
13456;BME280;6800;50.940;6.940;2023-04-15T00:04:41;99971.63;;;19.55;30.96
13456;BME280;6800;50.940;6.940;2023-04-15T00:08:42;99974.94;;;19.57;31.06
13456;BME280;6800;50.940;6.940;2023-04-15T00:12:43;99966.16;;;19.49;31.51
13456;BME280;6800;50.940;6.940;2023-04-15T00:16:45;99973.72;;;19.35;32.19
13456;BME280;6800;50.940;6.940;2023-04-15T00:20:47;99975.91;;;19.48;32.11
13456;BME280;6800;50.940;6.940;2023-04-15T00:24:49;99971.56;;;19.39;32.13
13456;BME280;6800;50.940;6.940;2023-04-15T00:28:50;99966.75;;;19.34;32.27
13456;BME280;6800;50.940;6.940;2023-04-15T00:32:51;99962.00;;;19.46;32.52
13456;BME280;6800;50.940;6.940;2023-04-15T00:36:53;99974.84;;;19.33;32.52
13456;BME280;6800;50.940;6.940;2023-04-15T00:40:55;99974.13;;;19.65;32.54
13456;BME280;6800;50.940;6.940;2023-04-15T00:44:56;99982.69;;;19.42;33.18
13456;BME280;6800;50.940;6.940;2023-04-15T00:48:58;99988.34;;;19.22;33.28
13456;BME280;6800;50.940;6.940;2023-04-15T00:52:59;99976.19;;;19.03;33.35
13456;BME280;6800;50.940;6.940;2023-04-15T00:57:01;99982.16;;;19.05;32.99
13456;BME280;6800;50.940;6.940;2023-04-15T01:01:05;99979.78;;;18.94;33.51
13456;BME280;6800;50.940;6.940;2023-04-15T01:05:07;99973.38;;;19.05;32.96
13456;BME280;6800;50.940;6.940;2023-04-15T01:09:08;99979.28;;;18.91;32.93
13456;BME280;6800;50.940;6.940;2023-04-15T01:13:11;99984.19;;;18.86;33.37
13456;BME280;6800;50.940;6.940;2023-04-15T01:17:12;99976.69;;;18.73;33.54
13456;BME280;6800;50.940;6.940;2023-04-15T01:21:14;99979.38;;;18.81;32.95
13456;BME280;6800;50.940;6.940;2023-04-15T01:25:17;99977.56;;;18.56;33.51
13456;BME280;6800;50.940;6.940;2023-04-15T01:29:19;99982.81;;;18.48;33.52
13456;BME280;6800;50.940;6.940;2023-04-15T01:33:21;99979.09;;;18.41;33.61
13456;BME280;6800;50.940;6.940;2023-04-15T01:37:23;99973.78;;;18.41;33.65
13456;BME280;6800;50.940;6.940;2023-04-15T01:41:26;99969.75;;;18.46;33.41
13456;BME280;6800;50.940;6.940;2023-04-15T01:45:28;99973.25;;;18.12;34.02
13456;BME280;6800;50.940;6.940;2023-04-15T01:49:30;99969.06;;;18.27;34.23
13456;BME280;6800;50.940;6.940;2023-04-15T01:53:32;99966.22;;;18.20;34.21
13456;BME280;6800;50.940;6.940;2023-04-15T01:57:34;99970.75;;;18.10;34.51
13456;BME280;6800;50.940;6.940;2023-04-15T02:01:35;99966.16;;;18.12;34.22
13456;BME280;6800;50.940;6.940;2023-04-15T02:05:37;99962.53;;;18.13;34.25
13456;BME280;6800;50.940;6.940;2023-04-15T02:09:38;99964.28;;;18.05;34.45
13456;BME280;6800;50.940;6.940;2023-04-15T02:13:40;99970.09;;;18.08;34.20
13456;BME280;6800;50.940;6.940;2023-04-15T02:17:41;99972.06;;;18.06;34.20
13456;BME280;6800;50.940;6.940;2023-04-15T02:21:46;99965.09;;;18.05;34.19
13456;BME280;6800;50.940;6.940;2023-04-15T02:25:47;99977.78;;;18.02;34.24
13456;BME280;6800;50.940;6.940;2023-04-15T02:29:54;99972.56;;;17.92;34.20
13456;BME280;6800;50.940;6.940;2023-04-15T02:33:55;99977.25;;;17.80;34.81
13456;BME280;6800;50.940;6.940;2023-04-15T02:37:57;99967.38;;;18.00;34.36
13456;BME280;6800;50.940;6.940;2023-04-15T02:41:58;99980.59;;;18.00;34.88
13456;BME280;6800;50.940;6.940;2023-04-15T02:46:01;99984.66;;;17.94;34.41
13456;BME280;6800;50.940;6.940;2023-04-15T02:50:02;99983.44;;;17.71;34.96
13456;BME280;6800;50.940;6.940;2023-04-15T02:54:04;99985.41;;;17.69;34.97
13456;BME280;6800;50.940;6.940;2023-04-15T02:58:05;99998.16;;;17.74;35.07
13456;BME280;6800;50.940;6.940;2023-04-15T03:02:07;99996.13;;;17.41;35.40
13456;BME280;6800;50.940;6.940;2023-04-15T03:06:08;99994.16;;;17.43;35.49
13456;BME280;6800;50.940;6.940;2023-04-15T03:10:10;99999.13;;;17.18;36.00
13456;BME280;6800;50.940;6.940;2023-04-15T03:14:11;99999.34;;;17.35;35.95
13456;BME280;6800;50.940;6.940;2023-04-15T03:18:13;100007.47;;;17.41;35.63
13456;BME280;6800;50.940;6.940;2023-04-15T03:22:14;100001.22;;;17.42;35.44
13456;BME280;6800;50.940;6.940;2023-04-15T03:26:27;100008.38;;;17.32;35.80
13456;BME280;6800;50.940;6.940;2023-04-15T03:30:28;100007.81;;;17.29;35.71
13456;BME280;6800;50.940;6.940;2023-04-15T03:34:30;100012.56;;;17.25;35.83
13456;BME280;6800;50.940;6.940;2023-04-15T03:38:31;100011.44;;;17.28;36.07
13456;BME280;6800;50.940;6.940;2023-04-15T03:42:33;100016.72;;;17.28;36.04
13456;BME280;6800;50.940;6.940;2023-04-15T03:46:34;100018.25;;;16.93;36.39
13456;BME280;6800;50.940;6.940;2023-04-15T03:50:35;100021.91;;;17.20;36.18
13456;BME280;6800;50.940;6.940;2023-04-15T03:54:37;100021.16;;;17.27;36.35
13456;BME280;6800;50.940;6.940;2023-04-15T03:58:38;100032.72;;;17.26;36.23
13456;BME280;6800;50.940;6.940;2023-04-15T04:02:39;100042.19;;;17.09;36.42
13456;BME280;6800;50.940;6.940;2023-04-15T04:06:41;100031.03;;;17.25;36.52
13456;BME280;6800;50.940;6.940;2023-04-15T04:10:43;100035.66;;;17.13;36.67
13456;BME280;6800;50.940;6.940;2023-04-15T04:14:44;100041.22;;;17.10;36.74
13456;BME280;6800;50.940;6.940;2023-04-15T04:18:46;100032.56;;;17.18;36.34
13456;BME280;6800;50.940;6.940;2023-04-15T04:22:50;100040.97;;;17.04;36.75
13456;BME280;6800;50.940;6.940;2023-04-15T04:26:52;100039.28;;;17.03;37.13
13456;BME280;6800;50.940;6.940;2023-04-15T04:30:54;100035.50;;;16.78;37.11
13456;BME280;6800;50.940;6.940;2023-04-15T04:34:56;100045.34;;;16.86;37.22
13456;BME280;6800;50.940;6.940;2023-04-15T04:38:58;100054.38;;;16.45;38.04
13456;BME280;6800;50.940;6.940;2023-04-15T04:43:00;100060.16;;;16.87;37.05
13456;BME280;6800;50.940;6.940;2023-04-15T04:47:02;100057.53;;;16.87;37.29
13456;BME280;6800;50.940;6.940;2023-04-15T04:51:03;100062.81;;;16.87;37.05
13456;BME280;6800;50.940;6.940;2023-04-15T04:55:05;100059.50;;;16.75;37.40
13456;BME280;6800;50.940;6.940;2023-04-15T04:59:06;100076.56;;;16.71;37.45
13456;BME280;6800;50.940;6.940;2023-04-15T05:03:08;100084.06;;;16.28;38.47
13456;BME280;6800;50.940;6.940;2023-04-15T05:07:10;100078.47;;;16.88;37.39
13456;BME280;6800;50.940;6.940;2023-04-15T05:11:11;100071.94;;;16.92;37.29
13456;BME280;6800;50.940;6.940;2023-04-15T05:15:13;100071.81;;;16.94;37.24
13456;BME280;6800;50.940;6.940;2023-04-15T05:19:14;100082.47;;;16.92;37.54
13456;BME280;6800;50.940;6.940;2023-04-15T05:23:17;100085.81;;;16.94;37.33
13456;BME280;6800;50.940;6.940;2023-04-15T05:27:19;100069.50;;;17.18;37.20
13456;BME280;6800;50.940;6.940;2023-04-15T05:31:20;100085.31;;;17.28;37.13
13456;BME280;6800;50.940;6.940;2023-04-15T05:35:22;100091.75;;;15.91;39.55
13456;BME280;6800;50.940;6.940;2023-04-15T05:39:23;100098.84;;;17.05;37.61
13456;BME280;6800;50.940;6.940;2023-04-15T05:43:24;100110.50;;;17.49;36.94
13456;BME280;6800;50.940;6.940;2023-04-15T05:47:26;100120.38;;;17.57;37.32
13456;BME280;6800;50.940;6.940;2023-04-15T05:51:28;100120.97;;;17.78;37.10
13456;BME280;6800;50.940;6.940;2023-04-15T05:55:29;100118.63;;;18.02;36.61
13456;BME280;6800;50.940;6.940;2023-04-15T05:59:31;100127.25;;;18.39;36.43
13456;BME280;6800;50.940;6.940;2023-04-15T06:03:33;100124.41;;;18.68;35.84
13456;BME280;6800;50.940;6.940;2023-04-15T06:07:35;100122.56;;;18.86;34.72
13456;BME280;6800;50.940;6.940;2023-04-15T06:11:36;100134.03;;;18.95;34.52
13456;BME280;6800;50.940;6.940;2023-04-15T06:15:38;100138.50;;;19.37;34.42
13456;BME280;6800;50.940;6.940;2023-04-15T06:19:39;100142.56;;;19.58;33.63
13456;BME280;6800;50.940;6.940;2023-04-15T06:23:41;100141.44;;;19.60;33.58
13456;BME280;6800;50.940;6.940;2023-04-15T06:27:42;100150.84;;;19.88;33.17
13456;BME280;6800;50.940;6.940;2023-04-15T06:31:43;100146.91;;;20.08;33.33
13456;BME280;6800;50.940;6.940;2023-04-15T06:35:47;100150.00;;;20.30;32.42
13456;BME280;6800;50.940;6.940;2023-04-15T06:39:49;100154.16;;;20.32;32.33
13456;BME280;6800;50.940;6.940;2023-04-15T06:43:51;100162.94;;;20.41;32.34
13456;BME280;6800;50.940;6.940;2023-04-15T06:47:52;100155.03;;;20.65;31.72
13456;BME280;6800;50.940;6.940;2023-04-15T06:51:54;100160.06;;;21.16;31.35
13456;BME280;6800;50.940;6.940;2023-04-15T06:55:55;100165.47;;;21.47;30.88
13456;BME280;6800;50.940;6.940;2023-04-15T06:59:57;100173.19;;;21.72;30.72
13456;BME280;6800;50.940;6.940;2023-04-15T07:03:58;100173.34;;;22.26;29.36
13456;BME280;6800;50.940;6.940;2023-04-15T07:07:59;100173.63;;;20.81;31.22
13456;BME280;6800;50.940;6.940;2023-04-15T07:12:01;100177.53;;;21.73;29.16
13456;BME280;6800;50.940;6.940;2023-04-15T07:16:03;100186.75;;;22.02;29.32
13456;BME280;6800;50.940;6.940;2023-04-15T07:20:04;100187.72;;;23.15;28.76
13456;BME280;6800;50.940;6.940;2023-04-15T07:24:06;100190.75;;;24.23;27.27
13456;BME280;6800;50.940;6.940;2023-04-15T07:28:07;100198.66;;;24.01;27.28
13456;BME280;6800;50.940;6.940;2023-04-15T07:32:09;100196.84;;;23.73;27.70
13456;BME280;6800;50.940;6.940;2023-04-15T07:36:11;100205.59;;;21.84;30.53
13456;BME280;6800;50.940;6.940;2023-04-15T07:40:16;100202.22;;;23.50;29.17
13456;BME280;6800;50.940;6.940;2023-04-15T07:44:17;100203.09;;;23.05;29.21
13456;BME280;6800;50.940;6.940;2023-04-15T07:48:18;100216.47;;;19.69;34.39
13456;BME280;6800;50.940;6.940;2023-04-15T07:52:20;100211.56;;;22.86;30.08
13456;BME280;6800;50.940;6.940;2023-04-15T07:56:22;100211.31;;;23.18;29.02
13456;BME280;6800;50.940;6.940;2023-04-15T08:00:23;100217.13;;;22.99;29.67
13456;BME280;6800;50.940;6.940;2023-04-15T08:04:25;100222.38;;;24.40;27.45
13456;BME280;6800;50.940;6.940;2023-04-15T08:08:27;100223.94;;;24.49;28.38
13456;BME280;6800;50.940;6.940;2023-04-15T08:12:28;100218.31;;;26.05;26.17
13456;BME280;6800;50.940;6.940;2023-04-15T08:16:30;100223.41;;;25.66;25.82
13456;BME280;6800;50.940;6.940;2023-04-15T08:20:32;100227.50;;;25.62;25.98
13456;BME280;6800;50.940;6.940;2023-04-15T08:24:34;100234.50;;;24.57;25.44
13456;BME280;6800;50.940;6.940;2023-04-15T08:28:38;100244.31;;;21.46;29.67
13456;BME280;6800;50.940;6.940;2023-04-15T08:32:41;100245.66;;;21.10;30.63
13456;BME280;6800;50.940;6.940;2023-04-15T08:36:42;100248.16;;;20.46;31.37
13456;BME280;6800;50.940;6.940;2023-04-15T08:40:44;100251.91;;;22.75;27.50
13456;BME280;6800;50.940;6.940;2023-04-15T08:44:46;100260.91;;;22.74;27.06
13456;BME280;6800;50.940;6.940;2023-04-15T08:48:48;100262.88;;;24.15;25.35
13456;BME280;6800;50.940;6.940;2023-04-15T08:52:53;100265.56;;;21.46;28.88
13456;BME280;6800;50.940;6.940;2023-04-15T08:56:56;100272.19;;;19.59;31.75
13456;BME280;6800;50.940;6.940;2023-04-15T09:00:58;100273.13;;;20.27;30.90
13456;BME280;6800;50.940;6.940;2023-04-15T09:05:00;100269.19;;;22.79;27.88
13456;BME280;6800;50.940;6.940;2023-04-15T09:09:01;100279.88;;;20.21;30.77
13456;BME280;6800;50.940;6.940;2023-04-15T09:13:03;100277.25;;;22.16;28.21
13456;BME280;6800;50.940;6.940;2023-04-15T09:17:05;100288.19;;;24.98;24.74
13456;BME280;6800;50.940;6.940;2023-04-15T09:21:12;100291.16;;;23.26;26.29
13456;BME280;6800;50.940;6.940;2023-04-15T09:29:15;100310.84;;;21.13;29.94
13456;BME280;6800;50.940;6.940;2023-04-15T09:33:18;100318.47;;;20.58;30.40
13456;BME280;6800;50.940;6.940;2023-04-15T09:37:34;100307.78;;;23.28;27.14
13456;BME280;6800;50.940;6.940;2023-04-15T09:41:35;100306.97;;;23.88;26.50
13456;BME280;6800;50.940;6.940;2023-04-15T09:45:37;100325.06;;;25.30;25.04
13456;BME280;6800;50.940;6.940;2023-04-15T09:49:54;100310.97;;;25.85;24.28
13456;BME280;6800;50.940;6.940;2023-04-15T09:53:56;100306.97;;;27.31;23.00
13456;BME280;6800;50.940;6.940;2023-04-15T09:57:57;100315.78;;;29.00;20.50
13456;BME280;6800;50.940;6.940;2023-04-15T10:01:59;100315.53;;;28.64;20.66
13456;BME280;6800;50.940;6.940;2023-04-15T10:06:01;100320.50;;;25.24;24.28
13456;BME280;6800;50.940;6.940;2023-04-15T10:10:04;100327.44;;;27.71;21.99
13456;BME280;6800;50.940;6.940;2023-04-15T10:14:06;100332.75;;;28.37;21.44
13456;BME280;6800;50.940;6.940;2023-04-15T10:18:08;100338.84;;;27.00;23.41
13456;BME280;6800;50.940;6.940;2023-04-15T10:22:12;100335.28;;;27.66;22.72
13456;BME280;6800;50.940;6.940;2023-04-15T10:26:15;100341.81;;;28.62;21.50
13456;BME280;6800;50.940;6.940;2023-04-15T10:30:17;100344.59;;;25.94;24.42
13456;BME280;6800;50.940;6.940;2023-04-15T10:34:19;100343.00;;;23.84;27.10
13456;BME280;6800;50.940;6.940;2023-04-15T10:38:41;100337.97;;;27.79;22.73
13456;BME280;6800;50.940;6.940;2023-04-15T10:42:44;100347.44;;;27.49;23.20
13456;BME280;6800;50.940;6.940;2023-04-15T10:46:45;100355.53;;;27.75;22.79
13456;BME280;6800;50.940;6.940;2023-04-15T10:50:56;100354.34;;;25.74;25.85
13456;BME280;6800;50.940;6.940;2023-04-15T10:55:24;100346.38;;;24.00;27.03
13456;BME280;6800;50.940;6.940;2023-04-15T10:59:23;100358.91;;;27.17;23.86
13456;BME280;6800;50.940;6.940;2023-04-15T11:03:39;100364.47;;;25.22;25.96
13456;BME280;6800;50.940;6.940;2023-04-15T11:12:08;100367.53;;;24.83;26.94
13456;BME280;6800;50.940;6.940;2023-04-15T11:16:10;100372.28;;;25.59;26.24
13456;BME280;6800;50.940;6.940;2023-04-15T11:20:14;100372.56;;;26.75;24.73
13456;BME280;6800;50.940;6.940;2023-04-15T11:24:25;100378.59;;;25.37;25.54
13456;BME280;6800;50.940;6.940;2023-04-15T11:28:28;100382.22;;;25.08;26.48
13456;BME280;6800;50.940;6.940;2023-04-15T11:32:30;100397.28;;;25.16;26.26
13456;BME280;6800;50.940;6.940;2023-04-15T11:36:32;100391.22;;;25.07;26.64
13456;BME280;6800;50.940;6.940;2023-04-15T11:40:33;100404.69;;;24.03;27.65
13456;BME280;6800;50.940;6.940;2023-04-15T11:44:35;100415.00;;;22.45;30.18
13456;BME280;6800;50.940;6.940;2023-04-15T11:48:41;100418.31;;;25.19;26.77
13456;BME280;6800;50.940;6.940;2023-04-15T11:56:54;100424.63;;;22.54;31.17
13456;BME280;6800;50.940;6.940;2023-04-15T12:00:58;100430.69;;;24.76;28.16
13456;BME280;6800;50.940;6.940;2023-04-15T12:05:05;100423.09;;;24.50;27.90
13456;BME280;6800;50.940;6.940;2023-04-15T12:09:10;100447.47;;;21.84;32.47
13456;BME280;6800;50.940;6.940;2023-04-15T12:13:13;100452.69;;;23.58;30.25
13456;BME280;6800;50.940;6.940;2023-04-15T12:17:14;100449.56;;;22.77;31.06
13456;BME280;6800;50.940;6.940;2023-04-15T12:21:19;100462.09;;;21.38;33.60
13456;BME280;6800;50.940;6.940;2023-04-15T12:25:32;100467.75;;;23.04;31.32
13456;BME280;6800;50.940;6.940;2023-04-15T12:29:35;100482.19;;;22.39;31.80
13456;BME280;6800;50.940;6.940;2023-04-15T12:33:37;100495.44;;;21.83;32.75
13456;BME280;6800;50.940;6.940;2023-04-15T12:37:39;100493.47;;;22.49;31.75
13456;BME280;6800;50.940;6.940;2023-04-15T12:41:40;100501.03;;;20.88;35.05
13456;BME280;6800;50.940;6.940;2023-04-15T12:45:42;100510.97;;;21.53;34.18
13456;BME280;6800;50.940;6.940;2023-04-15T12:49:43;100524.13;;;20.70;35.44
13456;BME280;6800;50.940;6.940;2023-04-15T12:53:44;100518.44;;;22.56;32.47
13456;BME280;6800;50.940;6.940;2023-04-15T12:57:47;100528.72;;;22.03;33.59
13456;BME280;6800;50.940;6.940;2023-04-15T13:01:50;100543.41;;;20.72;36.22
13456;BME280;6800;50.940;6.940;2023-04-15T13:05:52;100545.16;;;20.63;36.13
13456;BME280;6800;50.940;6.940;2023-04-15T13:09:54;100551.72;;;21.03;34.92
13456;BME280;6800;50.940;6.940;2023-04-15T13:13:56;100553.59;;;21.86;33.90
13456;BME280;6800;50.940;6.940;2023-04-15T13:17:57;100560.06;;;21.41;34.63
13456;BME280;6800;50.940;6.940;2023-04-15T13:21:59;100566.03;;;19.96;37.05
13456;BME280;6800;50.940;6.940;2023-04-15T13:26:00;100566.88;;;20.67;36.05
13456;BME280;6800;50.940;6.940;2023-04-15T13:30:02;100570.16;;;21.38;34.90
13456;BME280;6800;50.940;6.940;2023-04-15T13:34:04;100589.13;;;20.48;36.93
13456;BME280;6800;50.940;6.940;2023-04-15T13:38:05;100582.97;;;21.09;35.09
13456;BME280;6800;50.940;6.940;2023-04-15T13:42:07;100596.56;;;20.88;35.85
13456;BME280;6800;50.940;6.940;2023-04-15T13:46:08;100596.50;;;20.09;36.75
13456;BME280;6800;50.940;6.940;2023-04-15T13:50:10;100600.97;;;20.09;37.35
13456;BME280;6800;50.940;6.940;2023-04-15T13:54:11;100599.28;;;20.96;36.23
13456;BME280;6800;50.940;6.940;2023-04-15T13:58:12;100602.75;;;20.96;36.00
13456;BME280;6800;50.940;6.940;2023-04-15T14:02:14;100612.94;;;21.94;34.56
13456;BME280;6800;50.940;6.940;2023-04-15T14:06:15;100624.75;;;22.00;33.95
13456;BME280;6800;50.940;6.940;2023-04-15T14:10:17;100624.59;;;21.08;35.55
13456;BME280;6800;50.940;6.940;2023-04-15T14:14:18;100623.03;;;21.49;34.86
13456;BME280;6800;50.940;6.940;2023-04-15T14:18:20;100622.72;;;21.86;34.27
13456;BME280;6800;50.940;6.940;2023-04-15T14:22:21;100633.91;;;20.69;35.75
13456;BME280;6800;50.940;6.940;2023-04-15T14:26:23;100638.88;;;21.07;36.32
13456;BME280;6800;50.940;6.940;2023-04-15T14:30:24;100642.38;;;22.83;33.28
13456;BME280;6800;50.940;6.940;2023-04-15T14:34:25;100638.84;;;22.50;33.64
13456;BME280;6800;50.940;6.940;2023-04-15T14:38:27;100641.63;;;22.40;34.44
13456;BME280;6800;50.940;6.940;2023-04-15T14:42:29;100638.00;;;21.84;35.56
13456;BME280;6800;50.940;6.940;2023-04-15T14:46:30;100654.78;;;21.84;35.64
13456;BME280;6800;50.940;6.940;2023-04-15T14:50:31;100662.44;;;21.10;36.54
13456;BME280;6800;50.940;6.940;2023-04-15T14:54:33;100667.88;;;20.65;37.13
13456;BME280;6800;50.940;6.940;2023-04-15T14:58:34;100671.56;;;20.90;37.42
13456;BME280;6800;50.940;6.940;2023-04-15T15:02:37;100675.09;;;20.98;36.89
13456;BME280;6800;50.940;6.940;2023-04-15T15:06:40;100677.56;;;21.61;35.77
13456;BME280;6800;50.940;6.940;2023-04-15T15:10:42;100673.25;;;21.94;35.04
13456;BME280;6800;50.940;6.940;2023-04-15T15:14:50;100675.13;;;22.67;35.50
13456;BME280;6800;50.940;6.940;2023-04-15T15:18:51;100681.78;;;22.05;36.41
13456;BME280;6800;50.940;6.940;2023-04-15T15:22:53;100689.69;;;21.63;37.23
13456;BME280;6800;50.940;6.940;2023-04-15T15:26:54;100692.31;;;20.94;38.18
13456;BME280;6800;50.940;6.940;2023-04-15T15:30:55;100701.66;;;20.81;38.10
13456;BME280;6800;50.940;6.940;2023-04-15T15:34:57;100692.69;;;21.17;38.01
13456;BME280;6800;50.940;6.940;2023-04-15T15:38:58;100704.09;;;21.10;38.38
13456;BME280;6800;50.940;6.940;2023-04-15T15:43:00;100719.25;;;20.64;39.28
13456;BME280;6800;50.940;6.940;2023-04-15T15:47:01;100716.88;;;20.79;39.51
13456;BME280;6800;50.940;6.940;2023-04-15T15:51:03;100731.09;;;21.05;39.40
13456;BME280;6800;50.940;6.940;2023-04-15T15:55:05;100725.00;;;20.05;41.12
13456;BME280;6800;50.940;6.940;2023-04-15T15:59:06;100742.47;;;19.52;42.62
13456;BME280;6800;50.940;6.940;2023-04-15T16:03:08;100740.25;;;20.93;40.35
13456;BME280;6800;50.940;6.940;2023-04-15T16:07:09;100751.97;;;20.28;41.25
13456;BME280;6800;50.940;6.940;2023-04-15T16:11:12;100758.22;;;20.99;40.01
13456;BME280;6800;50.940;6.940;2023-04-15T16:15:13;100759.38;;;20.96;40.26
13456;BME280;6800;50.940;6.940;2023-04-15T16:19:14;100768.09;;;20.44;41.87
13456;BME280;6800;50.940;6.940;2023-04-15T16:23:17;100770.34;;;20.84;40.17
13456;BME280;6800;50.940;6.940;2023-04-15T16:27:19;100774.91;;;20.74;40.98
13456;BME280;6800;50.940;6.940;2023-04-15T16:31:21;100777.56;;;20.47;42.16
13456;BME280;6800;50.940;6.940;2023-04-15T16:35:22;100780.91;;;20.49;42.54
13456;BME280;6800;50.940;6.940;2023-04-15T16:39:24;100789.13;;;20.73;41.65
13456;BME280;6800;50.940;6.940;2023-04-15T16:43:26;100799.97;;;19.79;43.28
13456;BME280;6800;50.940;6.940;2023-04-15T16:47:27;100801.00;;;20.14;42.87
13456;BME280;6800;50.940;6.940;2023-04-15T16:51:28;100815.16;;;19.86;42.65
13456;BME280;6800;50.940;6.940;2023-04-15T16:55:31;100808.41;;;20.20;42.18
13456;BME280;6800;50.940;6.940;2023-04-15T16:59:33;100811.78;;;20.03;42.20
13456;BME280;6800;50.940;6.940;2023-04-15T17:03:34;100811.69;;;20.59;41.46
13456;BME280;6800;50.940;6.940;2023-04-15T17:07:37;100816.06;;;20.14;42.54
13456;BME280;6800;50.940;6.940;2023-04-15T17:11:38;100817.75;;;20.52;41.21
13456;BME280;6800;50.940;6.940;2023-04-15T17:15:40;100826.53;;;20.25;42.51
13456;BME280;6800;50.940;6.940;2023-04-15T17:19:42;100826.91;;;20.57;41.49
13456;BME280;6800;50.940;6.940;2023-04-15T17:23:43;100833.69;;;19.96;41.37
13456;BME280;6800;50.940;6.940;2023-04-15T17:27:45;100832.41;;;20.09;41.05
13456;BME280;6800;50.940;6.940;2023-04-15T17:31:46;100848.47;;;19.98;41.68
13456;BME280;6800;50.940;6.940;2023-04-15T17:35:47;100840.16;;;19.74;41.36
13456;BME280;6800;50.940;6.940;2023-04-15T17:39:49;100846.63;;;20.08;40.85
13456;BME280;6800;50.940;6.940;2023-04-15T17:43:50;100852.06;;;20.07;41.21
13456;BME280;6800;50.940;6.940;2023-04-15T17:47:55;100862.03;;;19.95;41.32
13456;BME280;6800;50.940;6.940;2023-04-15T17:51:56;100870.66;;;19.97;40.74
13456;BME280;6800;50.940;6.940;2023-04-15T17:55:57;100878.66;;;20.44;40.20
13456;BME280;6800;50.940;6.940;2023-04-15T17:59:59;100876.25;;;19.75;41.42
13456;BME280;6800;50.940;6.940;2023-04-15T18:04:00;100878.50;;;19.61;41.26
13456;BME280;6800;50.940;6.940;2023-04-15T18:08:03;100893.69;;;19.68;41.09
13456;BME280;6800;50.940;6.940;2023-04-15T18:12:04;100898.88;;;19.70;41.03
13456;BME280;6800;50.940;6.940;2023-04-15T18:16:07;100910.00;;;19.92;41.00
13456;BME280;6800;50.940;6.940;2023-04-15T18:20:09;100913.06;;;19.97;41.17
13456;BME280;6800;50.940;6.940;2023-04-15T18:24:11;100911.31;;;19.20;42.08
13456;BME280;6800;50.940;6.940;2023-04-15T18:28:12;100919.66;;;19.15;41.68
13456;BME280;6800;50.940;6.940;2023-04-15T18:32:14;100942.09;;;18.72;43.78
13456;BME280;6800;50.940;6.940;2023-04-15T18:36:15;100944.97;;;18.68;45.18
13456;BME280;6800;50.940;6.940;2023-04-15T18:40:17;100943.91;;;19.20;43.97
13456;BME280;6800;50.940;6.940;2023-04-15T18:44:18;100950.28;;;19.48;43.35
13456;BME280;6800;50.940;6.940;2023-04-15T18:48:20;100964.56;;;19.26;43.98
13456;BME280;6800;50.940;6.940;2023-04-15T18:52:21;100963.41;;;19.10;44.61
13456;BME280;6800;50.940;6.940;2023-04-15T18:56:23;100973.75;;;19.22;44.44
13456;BME280;6800;50.940;6.940;2023-04-15T19:00:24;100970.22;;;19.62;44.34
13456;BME280;6800;50.940;6.940;2023-04-15T19:04:26;100986.97;;;19.13;45.18
13456;BME280;6800;50.940;6.940;2023-04-15T19:08:29;100981.31;;;19.36;45.06
13456;BME280;6800;50.940;6.940;2023-04-15T19:12:31;100992.78;;;19.56;44.57
13456;BME280;6800;50.940;6.940;2023-04-15T19:16:32;101000.19;;;19.13;46.36
13456;BME280;6800;50.940;6.940;2023-04-15T19:20:34;101001.53;;;19.07;45.97
13456;BME280;6800;50.940;6.940;2023-04-15T19:24:40;101009.09;;;18.82;47.28
13456;BME280;6800;50.940;6.940;2023-04-15T19:28:41;101013.34;;;18.32;47.97
13456;BME280;6800;50.940;6.940;2023-04-15T19:32:42;101019.13;;;18.57;47.78
13456;BME280;6800;50.940;6.940;2023-04-15T19:36:44;101022.31;;;18.82;47.78
13456;BME280;6800;50.940;6.940;2023-04-15T19:40:45;101031.75;;;19.05;47.53
13456;BME280;6800;50.940;6.940;2023-04-15T19:44:49;101034.47;;;19.14;47.02
13456;BME280;6800;50.940;6.940;2023-04-15T19:48:50;101046.69;;;19.15;47.23
13456;BME280;6800;50.940;6.940;2023-04-15T19:52:53;101042.78;;;18.59;48.20
13456;BME280;6800;50.940;6.940;2023-04-15T19:56:54;101042.41;;;19.24;47.38
13456;BME280;6800;50.940;6.940;2023-04-15T20:00:56;101055.16;;;18.79;47.39
13456;BME280;6800;50.940;6.940;2023-04-15T20:04:58;101055.94;;;18.70;47.63
13456;BME280;6800;50.940;6.940;2023-04-15T20:08:59;101065.81;;;18.89;47.53
13456;BME280;6800;50.940;6.940;2023-04-15T20:13:01;101062.69;;;18.42;48.00
13456;BME280;6800;50.940;6.940;2023-04-15T20:17:02;101056.16;;;18.57;48.13
13456;BME280;6800;50.940;6.940;2023-04-15T20:21:04;101061.53;;;18.24;48.65
13456;BME280;6800;50.940;6.940;2023-04-15T20:25:06;101068.84;;;18.63;48.26
13456;BME280;6800;50.940;6.940;2023-04-15T20:29:07;101074.97;;;18.64;47.69
13456;BME280;6800;50.940;6.940;2023-04-15T20:33:09;101072.25;;;18.96;47.24
13456;BME280;6800;50.940;6.940;2023-04-15T20:37:10;101078.38;;;18.55;48.55
13456;BME280;6800;50.940;6.940;2023-04-15T20:41:15;101074.97;;;18.64;48.03
13456;BME280;6800;50.940;6.940;2023-04-15T20:45:16;101078.53;;;18.74;48.00
13456;BME280;6800;50.940;6.940;2023-04-15T20:49:17;101082.44;;;18.80;47.89
13456;BME280;6800;50.940;6.940;2023-04-15T20:53:19;101086.50;;;18.84;47.99
13456;BME280;6800;50.940;6.940;2023-04-15T20:57:20;101086.06;;;18.79;48.17
13456;BME280;6800;50.940;6.940;2023-04-15T21:01:22;101090.31;;;18.91;47.25
13456;BME280;6800;50.940;6.940;2023-04-15T21:05:23;101092.56;;;18.54;48.66
13456;BME280;6800;50.940;6.940;2023-04-15T21:09:25;101095.09;;;18.55;48.29
13456;BME280;6800;50.940;6.940;2023-04-15T21:13:26;101092.66;;;18.32;48.82
13456;BME280;6800;50.940;6.940;2023-04-15T21:17:27;101094.31;;;18.64;48.11
13456;BME280;6800;50.940;6.940;2023-04-15T21:21:29;101099.69;;;18.53;48.16
13456;BME280;6800;50.940;6.940;2023-04-15T21:25:32;101109.03;;;18.57;48.61
13456;BME280;6800;50.940;6.940;2023-04-15T21:29:33;101107.63;;;18.11;49.67
13456;BME280;6800;50.940;6.940;2023-04-15T21:33:34;101105.00;;;18.00;49.33
13456;BME280;6800;50.940;6.940;2023-04-15T21:37:36;101114.09;;;18.49;48.39